Time;durP1;ratioP1;P1;durP2;ratioP2;P2;SDS_P1;SDS_P2;PMS_P1;PMS_P2;Temp;Humidity;BMP_temperature;BMP_pressure;BME280_temperature;BME280_humidity;BME280_pressure;Samples;Min_cycle;Max_cycle;Signal;HPM_P1;HPM_P2
2023/12/23 00:01:23;;;;;;;9.02;1.70;;;3.40;99.90;;;;;;5045008;28;20036;-55
2023/12/23 00:03:49;;;;;;;16.77;2.25;;;3.40;99.90;;;;;;5028205;28;20025;-56
2023/12/23 00:06:15;;;;;;;7.45;1.90;;;3.40;99.90;;;;;;5038263;28;20471;-55
2023/12/23 00:08:40;;;;;;;11.07;1.60;;;3.40;99.90;;;;;;5045358;28;20018;-56
2023/12/23 00:11:06;;;;;;;11.77;1.65;;;3.40;99.90;;;;;;5047975;28;20036;-56
2023/12/23 00:13:32;;;;;;;17.02;2.63;;;3.30;99.90;;;;;;5042106;28;20143;-56
2023/12/23 00:15:57;;;;;;;15.13;2.25;;;3.40;99.90;;;;;;5049982;28;20029;-55
2023/12/23 00:18:23;;;;;;;15.77;2.20;;;3.40;99.90;;;;;;5049415;28;20044;-56
2023/12/23 00:20:49;;;;;;;15.57;2.55;;;3.30;99.90;;;;;;5046413;28;20386;-54
2023/12/23 00:23:14;;;;;;;12.90;2.20;;;3.30;99.90;;;;;;5046526;28;20151;-56
2023/12/23 00:25:40;;;;;;;6.97;1.70;;;3.40;99.90;;;;;;5049675;28;20311;-56
2023/12/23 00:28:06;;;;;;;9.18;2.03;;;3.40;99.90;;;;;;5049731;28;20036;-56
2023/12/23 00:30:32;;;;;;;14.90;2.13;;;3.30;99.90;;;;;;5049217;28;20021;-56
2023/12/23 00:32:57;;;;;;;16.60;4.40;;;3.40;99.90;;;;;;5050123;28;20075;-56
2023/12/23 00:35:23;;;;;;;17.83;3.50;;;3.50;99.90;;;;;;5031066;28;20086;-56
2023/12/23 00:37:49;;;;;;;8.05;2.08;;;3.50;99.90;;;;;;5049655;28;20020;-56
2023/12/23 00:40:15;;;;;;;14.35;3.58;;;3.50;99.90;;;;;;5050258;28;20076;-56
2023/12/23 00:42:40;;;;;;;10.40;2.10;;;3.50;99.90;;;;;;5049419;28;20029;-56
2023/12/23 00:45:06;;;;;;;12.20;2.08;;;3.50;99.90;;;;;;5049975;28;20477;-55
2023/12/23 00:47:32;;;;;;;10.77;3.22;;;3.50;99.90;;;;;;5049103;28;20221;-55
2023/12/23 00:49:58;;;;;;;12.90;2.47;;;3.50;99.90;;;;;;5050214;28;20100;-55
2023/12/23 00:52:24;;;;;;;12.75;2.33;;;3.40;99.90;;;;;;5049553;28;20028;-56
2023/12/23 00:54:49;;;;;;;12.70;2.75;;;3.40;99.90;;;;;;5049906;28;20088;-55
2023/12/23 00:57:15;;;;;;;20.00;2.80;;;3.30;99.90;;;;;;5049991;28;20021;-55
2023/12/23 00:59:41;;;;;;;15.77;3.47;;;3.40;99.90;;;;;;5049538;28;20084;-55
2023/12/23 01:02:07;;;;;;;14.70;2.65;;;3.30;99.90;;;;;;5050392;28;20025;-56
2023/12/23 01:04:32;;;;;;;18.90;3.63;;;3.30;99.90;;;;;;5031455;28;20091;-55
2023/12/23 01:06:58;;;;;;;18.05;2.65;;;3.30;99.90;;;;;;5031766;28;20039;-56
2023/12/23 01:09:24;;;;;;;8.65;2.83;;;3.30;99.90;;;;;;5049421;28;20100;-55
2023/12/23 01:11:49;;;;;;;13.35;3.20;;;3.30;99.90;;;;;;5049962;28;20417;-54
2023/12/23 01:14:15;;;;;;;8.30;2.15;;;3.30;99.90;;;;;;5050093;28;20020;-54
2023/12/23 01:16:41;;;;;;;10.20;3.28;;;3.20;99.90;;;;;;5041247;28;20083;-56
2023/12/23 01:19:07;;;;;;;18.63;2.85;;;3.30;99.90;;;;;;5032435;28;20489;-54
2023/12/23 01:21:33;;;;;;;18.73;2.90;;;3.20;99.90;;;;;;5050183;28;20028;-55
2023/12/23 01:23:58;;;;;;;11.05;2.70;;;3.20;99.90;;;;;;5049636;28;20024;-54
2023/12/23 01:26:24;;;;;;;17.55;2.67;;;3.20;99.90;;;;;;5049337;28;20083;-55
2023/12/23 01:28:49;;;;;;;14.07;2.63;;;3.10;99.90;;;;;;5046269;28;20052;-55
2023/12/23 01:31:18;;;;;;;13.45;2.20;;;3.10;99.90;;;;;;5046186;28;20467;-55
2023/12/23 01:33:43;;;;;;;12.73;3.22;;;3.00;99.90;;;;;;5030454;28;20498;-56
2023/12/23 01:36:09;;;;;;;17.27;2.65;;;3.00;99.90;;;;;;5027885;28;20036;-55
2023/12/23 01:38:34;;;;;;;15.57;2.40;;;2.90;99.90;;;;;;5029874;28;20025;-56
2023/12/23 01:41:00;;;;;;;17.70;3.33;;;2.90;99.90;;;;;;5029677;28;20044;-55
2023/12/23 01:43:26;;;;;;;14.90;2.53;;;2.90;99.90;;;;;;5012440;28;20594;-55
2023/12/23 01:45:58;;;;;;;16.30;3.05;;;2.80;99.90;;;;;;5029800;28;20030;-55
2023/12/23 01:48:24;;;;;;;10.18;2.47;;;2.80;99.90;;;;;;5030350;28;20021;-56
2023/12/23 01:50:52;;;;;;;10.45;2.63;;;2.80;99.90;;;;;;5029697;28;20391;-55
2023/12/23 01:53:18;;;;;;;12.88;2.80;;;2.80;99.90;;;;;;5029979;28;20026;-54
2023/12/23 01:55:44;;;;;;;10.48;2.20;;;2.80;99.90;;;;;;5029811;28;20025;-55
2023/12/23 01:58:10;;;;;;;9.27;1.88;;;2.70;99.90;;;;;;5029859;28;20029;-56
2023/12/23 02:00:36;;;;;;;17.30;2.47;;;2.70;99.90;;;;;;5012001;28;20033;-56
2023/12/23 02:03:03;;;;;;;12.55;2.53;;;2.70;99.90;;;;;;5030063;28;20029;-55
2023/12/23 02:05:28;;;;;;;11.80;2.85;;;2.70;99.90;;;;;;5030583;28;20049;-55
2023/12/23 02:07:54;;;;;;;9.52;2.42;;;2.70;99.90;;;;;;5030145;28;20045;-55
2023/12/23 02:10:20;;;;;;;11.98;3.45;;;2.60;99.90;;;;;;5030198;28;20060;-55
2023/12/23 02:13:01;;;;;;;14.93;2.33;;;2.60;99.90;;;;;;5030346;28;20018;-55
2023/12/23 02:15:27;;;;;;;;;;;2.60;99.90;;;;;;5030773;28;20483;-57
2023/12/23 02:18:01;;;;;;;8.00;1.35;;;2.50;99.90;;;;;;5030079;28;19916;-55
2023/12/23 02:20:27;;;;;;;13.55;2.40;;;2.60;99.90;;;;;;5012255;28;20433;-55
2023/12/23 02:22:53;;;;;;;7.80;1.70;;;2.50;99.90;;;;;;5030303;28;20025;-57
2023/12/23 02:25:21;;;;;;;8.25;1.83;;;2.60;99.90;;;;;;5029928;28;20025;-56
2023/12/23 02:27:55;;;;;;;11.95;2.10;;;2.50;99.90;;;;;;5029191;28;20013;-56
2023/12/23 02:30:23;;;;;;;18.00;2.67;;;2.60;99.90;;;;;;5028449;28;20033;-58
2023/12/23 02:32:49;;;;;;;13.82;1.95;;;2.60;99.90;;;;;;5030003;28;20049;-57
2023/12/23 02:35:15;;;;;;;11.25;2.63;;;2.60;99.90;;;;;;5011510;28;20048;-56
2023/12/23 02:37:41;;;;;;;34.47;5.57;;;2.60;99.90;;;;;;5029597;28;20025;-54
2023/12/23 02:40:08;;;;;;;13.73;4.50;;;2.60;99.90;;;;;;5030113;28;20129;-56
2023/12/23 02:42:34;;;;;;;14.05;2.53;;;2.70;99.90;;;;;;5030645;28;20109;-56
2023/12/23 02:44:59;;;;;;;18.77;2.28;;;2.70;99.90;;;;;;5030076;28;20104;-55
2023/12/23 02:47:25;;;;;;;15.10;2.30;;;2.70;99.90;;;;;;5030380;28;20497;-57
2023/12/23 02:49:51;;;;;;;13.20;2.35;;;2.80;99.90;;;;;;5030259;28;20101;-56
2023/12/23 02:52:16;;;;;;;15.98;2.47;;;2.90;99.90;;;;;;5030471;28;20128;-55
2023/12/23 02:54:42;;;;;;;14.77;2.47;;;2.90;99.90;;;;;;5028904;28;20067;-55
2023/12/23 02:57:07;;;;;;;15.07;3.20;;;3.00;99.90;;;;;;5029010;28;20093;-56
2023/12/23 02:59:33;;;;;;;15.88;2.63;;;3.00;99.90;;;;;;5030691;28;20076;-56
2023/12/23 03:01:59;;;;;;;12.15;2.42;;;3.10;99.90;;;;;;5029338;28;20546;-56
2023/12/23 03:04:24;;;;;;;13.55;2.65;;;3.10;99.90;;;;;;5029707;28;20025;-55
2023/12/23 03:06:50;;;;;;;15.02;2.17;;;3.10;99.90;;;;;;5030342;28;20029;-56
2023/12/23 03:09:15;;;;;;;10.75;2.38;;;3.20;99.90;;;;;;5030427;28;20045;-56
2023/12/23 03:11:41;;;;;;;18.67;3.35;;;3.20;99.90;;;;;;5031078;28;20638;-54
2023/12/23 03:14:07;;;;;;;14.82;2.42;;;3.20;99.90;;;;;;5030772;28;20025;-56
2023/12/23 03:16:35;;;;;;;10.65;2.50;;;3.20;99.90;;;;;;5030613;28;20039;-55
2023/12/23 03:19:02;;;;;;;12.15;2.72;;;3.20;99.90;;;;;;5030400;28;20018;-55
2023/12/23 03:21:28;;;;;;;16.92;2.92;;;3.30;99.90;;;;;;5012866;28;20068;-54
2023/12/23 03:23:54;;;;;;;14.90;2.47;;;3.30;99.90;;;;;;5029325;28;20262;-55
2023/12/23 03:26:20;;;;;;;21.58;2.92;;;3.30;99.90;;;;;;5030115;28;20026;-56
2023/12/23 03:28:45;;;;;;;19.02;3.72;;;3.30;99.90;;;;;;5012409;28;20056;-56
2023/12/23 03:31:11;;;;;;;20.60;4.43;;;3.30;99.90;;;;;;5030527;28;20230;-56
2023/12/23 03:33:36;;;;;;;18.23;2.67;;;3.40;99.90;;;;;;5031539;28;20330;-55
2023/12/23 03:36:02;;;;;;;15.52;2.58;;;3.40;99.90;;;;;;5028820;28;20025;-56
2023/12/23 03:38:28;;;;;;;27.35;4.18;;;3.50;99.90;;;;;;5012971;28;20025;-56
2023/12/23 03:40:53;;;;;;;22.00;4.97;;;3.50;99.90;;;;;;5012990;28;20434;-56
2023/12/23 03:43:19;;;;;;;15.30;2.42;;;3.50;99.90;;;;;;5030779;28;20147;-56
2023/12/23 03:45:45;;;;;;;17.42;3.88;;;3.60;99.90;;;;;;5032770;28;20394;-54
2023/12/23 03:48:11;;;;;;;20.65;3.70;;;3.60;99.90;;;;;;5031751;28;20029;-55
2023/12/23 03:50:36;;;;;;;15.48;2.83;;;3.60;99.90;;;;;;5016258;28;20026;-55
2023/12/23 03:53:02;;;;;;;11.98;3.92;;;3.60;99.90;;;;;;5016322;28;20021;-55
2023/12/23 03:55:32;;;;;;;19.58;2.85;;;3.70;99.90;;;;;;5031274;28;20406;-56
2023/12/23 03:57:59;;;;;;;15.55;3.50;;;3.70;99.90;;;;;;5032150;28;20098;-56
2023/12/23 04:00:25;;;;;;;9.27;2.63;;;3.80;99.90;;;;;;5034979;28;20454;-56
2023/12/23 04:02:51;;;;;;;29.58;3.10;;;3.80;99.90;;;;;;5034246;28;20469;-55
2023/12/23 04:05:17;;;;;;;25.58;3.55;;;3.80;99.90;;;;;;5034792;28;20075;-54
2023/12/23 04:07:42;;;;;;;15.63;4.38;;;3.90;99.90;;;;;;5035620;28;20033;-55
2023/12/23 04:10:08;;;;;;;25.05;3.88;;;3.80;99.90;;;;;;5031077;28;20048;-55
2023/12/23 04:12:33;;;;;;;16.67;2.72;;;3.90;99.90;;;;;;5034576;28;20091;-56
2023/12/23 04:14:59;;;;;;;16.45;3.90;;;3.90;99.90;;;;;;5034615;28;20045;-55
2023/12/23 04:17:25;;;;;;;15.88;2.63;;;3.90;99.90;;;;;;5034749;28;20033;-57
2023/12/23 04:19:50;;;;;;;13.82;3.30;;;4.00;99.90;;;;;;5034099;28;20160;-54
2023/12/23 04:22:16;;;;;;;15.52;3.20;;;4.00;99.90;;;;;;5034828;28;20044;-55
2023/12/23 04:24:42;;;;;;;16.95;2.65;;;4.00;99.90;;;;;;5034433;28;20283;-55
2023/12/23 04:27:08;;;;;;;15.82;2.72;;;4.10;99.90;;;;;;5034584;28;20021;-55
2023/12/23 04:29:35;;;;;;;13.70;2.75;;;4.10;99.90;;;;;;5036259;28;20049;-55
2023/12/23 04:32:00;;;;;;;15.27;3.03;;;4.10;99.90;;;;;;5035265;28;20445;-53
2023/12/23 04:34:26;;;;;;;19.23;3.40;;;4.10;99.90;;;;;;5031774;28;20124;-54
2023/12/23 04:36:51;;;;;;;19.70;2.47;;;4.10;99.90;;;;;;5031223;28;20399;-54
2023/12/23 04:39:17;;;;;;;17.83;4.72;;;4.10;99.90;;;;;;5017251;28;20017;-55
2023/12/23 04:41:47;;;;;;;14.98;2.45;;;4.00;99.90;;;;;;5034782;28;20036;-55
2023/12/23 04:44:15;;;;;;;13.27;3.17;;;4.00;99.90;;;;;;5035302;28;20079;-56
2023/12/23 04:46:42;;;;;;;17.08;2.58;;;4.00;99.90;;;;;;5036240;28;20260;-55
2023/12/23 04:49:08;;;;;;;19.40;2.88;;;4.00;99.90;;;;;;5034685;28;20523;-55
2023/12/23 04:51:34;;;;;;;9.48;2.22;;;3.90;99.90;;;;;;5036542;28;20032;-55
2023/12/23 04:54:00;;;;;;;17.52;3.70;;;3.90;99.90;;;;;;5027091;28;20015;-54
2023/12/23 04:56:25;;;;;;;15.85;2.17;;;3.90;99.90;;;;;;5034638;28;20018;-55
2023/12/23 04:58:51;;;;;;;15.75;2.55;;;3.80;99.90;;;;;;5033303;28;20037;-56
2023/12/23 05:01:16;;;;;;;12.35;2.40;;;3.80;99.90;;;;;;5034946;28;20582;-54
2023/12/23 05:03:42;;;;;;;15.38;3.22;;;3.80;99.90;;;;;;5034655;28;20086;-55
2023/12/23 05:06:08;;;;;;;15.50;2.53;;;3.80;99.90;;;;;;5034461;28;20032;-54
2023/12/23 05:08:33;;;;;;;9.95;2.92;;;3.80;99.90;;;;;;5033911;28;20037;-56
2023/12/23 05:10:59;;;;;;;10.30;2.35;;;3.80;99.90;;;;;;5034706;28;20502;-56
2023/12/23 05:13:25;;;;;;;14.48;2.30;;;3.70;99.90;;;;;;5032843;28;20041;-54
2023/12/23 05:15:50;;;;;;;10.65;2.13;;;3.70;99.90;;;;;;5036122;28;20033;-54
2023/12/23 05:18:16;;;;;;;18.23;4.70;;;3.70;99.90;;;;;;5034941;28;20193;-55
2023/12/23 05:20:42;;;;;;;9.70;2.30;;;3.70;99.90;;;;;;5036830;28;20107;-55
2023/12/23 05:23:08;;;;;;;7.63;1.52;;;3.70;99.90;;;;;;5017109;28;20104;-53
2023/12/23 05:25:34;;;;;;;8.25;2.03;;;3.70;99.90;;;;;;5033851;28;20060;-56
2023/12/23 05:27:59;;;;;;;6.38;1.67;;;3.70;99.90;;;;;;5035054;28;20029;-55
2023/12/23 05:30:25;;;;;;;31.80;4.03;;;3.70;99.90;;;;;;5017047;28;20037;-56
2023/12/23 05:32:50;;;;;;;14.68;3.05;;;3.60;99.90;;;;;;5034852;28;20041;-54
2023/12/23 05:35:16;;;;;;;21.52;4.05;;;3.60;99.90;;;;;;5033320;28;20387;-55
2023/12/23 05:37:42;;;;;;;8.55;2.08;;;3.60;99.90;;;;;;5029201;28;20025;-54
2023/12/23 05:40:09;;;;;;;11.70;2.15;;;3.60;99.90;;;;;;5037122;28;20496;-56
2023/12/23 05:42:35;;;;;;;12.77;1.67;;;3.60;99.90;;;;;;5037872;28;20041;-56
2023/12/23 05:45:00;;;;;;;17.10;2.30;;;3.60;99.90;;;;;;5037689;28;20483;-55
2023/12/23 05:47:27;;;;;;;13.23;2.15;;;3.60;99.90;;;;;;5038285;28;20470;-56
2023/12/23 05:49:52;;;;;;;8.02;1.58;;;3.60;99.90;;;;;;5020015;28;20072;-54
2023/12/23 05:52:18;;;;;;;6.95;1.90;;;3.60;99.90;;;;;;5039188;28;20476;-55
2023/12/23 05:54:44;;;;;;;10.80;2.03;;;3.60;99.90;;;;;;5029404;28;20049;-56
2023/12/23 05:57:09;;;;;;;6.72;2.47;;;3.60;99.90;;;;;;5034658;28;20025;-56
2023/12/23 05:59:35;;;;;;;13.75;2.53;;;3.60;99.90;;;;;;5036748;28;20026;-55
2023/12/23 06:02:00;;;;;;;17.45;2.45;;;3.60;99.90;;;;;;5035748;28;20037;-56
2023/12/23 06:04:27;;;;;;;8.77;1.92;;;3.60;99.90;;;;;;5035297;28;20030;-56
2023/12/23 06:06:52;;;;;;;12.88;3.40;;;3.60;99.90;;;;;;5036230;28;20057;-55
2023/12/23 06:09:18;;;;;;;6.93;2.20;;;3.60;99.90;;;;;;5034868;28;20252;-57
2023/12/23 06:11:44;;;;;;;9.45;2.50;;;3.60;99.90;;;;;;5037268;28;20025;-56
2023/12/23 06:14:10;;;;;;;18.08;3.45;;;3.60;99.90;;;;;;5034784;28;20607;-56
2023/12/23 06:16:40;;;;;;;12.18;1.88;;;3.60;99.90;;;;;;5036332;28;20112;-58
2023/12/23 06:19:06;;;;;;;14.48;2.58;;;3.60;99.90;;;;;;5032390;28;20437;-56
2023/12/23 06:21:32;;;;;;;10.23;2.30;;;3.60;99.90;;;;;;5036309;28;20490;-56
2023/12/23 06:23:58;;;;;;;19.15;5.05;;;3.60;99.90;;;;;;5018596;28;20158;-55
2023/12/23 06:26:24;;;;;;;17.23;2.90;;;3.60;99.90;;;;;;5035310;28;20033;-56
2023/12/23 06:28:50;;;;;;;9.30;2.10;;;3.60;99.90;;;;;;5037476;28;20059;-57
2023/12/23 06:31:15;;;;;;;11.65;1.92;;;3.50;99.90;;;;;;5035202;28;20511;-57
2023/12/23 06:33:41;;;;;;;12.85;2.25;;;3.50;99.90;;;;;;5017363;28;20041;-56
2023/12/23 06:36:08;;;;;;;14.43;2.65;;;3.50;99.90;;;;;;5031096;28;20998;-56
2023/12/23 06:38:36;;;;;;;14.23;1.75;;;3.50;99.90;;;;;;5037064;28;20025;-56
2023/12/23 06:41:03;;;;;;;6.55;1.77;;;3.50;99.90;;;;;;5028457;28;20090;-56
2023/12/23 06:43:29;;;;;;;9.45;2.13;;;3.40;99.90;;;;;;5013823;28;20033;-55
2023/12/23 06:45:55;;;;;;;8.18;2.53;;;3.40;99.90;;;;;;5030808;28;20108;-56
2023/12/23 06:48:21;;;;;;;10.05;2.33;;;3.40;99.90;;;;;;5028087;28;20101;-57
2023/12/23 06:50:46;;;;;;;10.10;1.80;;;3.40;99.90;;;;;;5027869;28;20510;-57
2023/12/23 06:53:12;;;;;;;6.97;1.52;;;3.30;99.90;;;;;;5027546;28;20029;-57
2023/12/23 06:55:38;;;;;;;7.90;1.67;;;3.30;99.90;;;;;;5010441;28;20025;-57
2023/12/23 06:58:04;;;;;;;6.93;2.00;;;3.30;99.90;;;;;;5027756;28;20502;-56
2023/12/23 07:00:29;;;;;;;7.57;2.25;;;3.30;99.90;;;;;;5028236;28;20025;-56
2023/12/23 07:02:55;;;;;;;4.88;1.45;;;3.30;99.90;;;;;;5027796;28;20036;-56
2023/12/23 07:05:21;;;;;;;5.10;1.25;;;3.30;99.90;;;;;;5027965;28;20027;-55
2023/12/23 07:07:47;;;;;;;6.78;1.70;;;3.30;99.90;;;;;;5027703;28;20065;-57
2023/12/23 07:10:13;;;;;;;7.85;1.17;;;3.20;99.90;;;;;;5027558;28;20029;-56
2023/12/23 07:12:40;;;;;;;5.93;1.60;;;3.20;99.90;;;;;;5027517;28;20018;-55
2023/12/23 07:15:06;;;;;;;3.67;1.52;;;3.20;99.90;;;;;;5031152;28;20044;-55
2023/12/23 07:17:32;;;;;;;8.55;2.22;;;3.20;99.90;;;;;;5031549;28;20113;-55
2023/12/23 07:19:58;;;;;;;6.13;1.42;;;3.20;99.90;;;;;;5027845;28;20021;-56
2023/12/23 07:22:24;;;;;;;5.95;2.00;;;3.20;99.90;;;;;;5027568;28;20338;-54
2023/12/23 07:24:50;;;;;;;6.28;1.50;;;3.10;99.90;;;;;;5027455;28;20048;-55
2023/12/23 07:27:15;;;;;;;6.57;2.00;;;3.20;99.90;;;;;;5027438;28;20018;-56
2023/12/23 07:29:41;;;;;;;9.63;1.65;;;3.10;99.90;;;;;;5027998;28;20049;-55
2023/12/23 07:32:07;;;;;;;5.90;1.70;;;3.10;99.90;;;;;;5035149;28;20029;-56
2023/12/23 07:34:33;;;;;;;8.38;2.10;;;3.20;99.90;;;;;;5036699;28;20137;-55
2023/12/23 07:36:58;;;;;;;8.48;2.20;;;3.20;99.90;;;;;;5036766;28;20098;-52
2023/12/23 07:39:24;;;;;;;6.82;1.92;;;3.20;99.90;;;;;;5035726;28;20497;-52
2023/12/23 07:41:49;;;;;;;5.72;1.35;;;3.10;99.90;;;;;;5039145;28;20060;-53
2023/12/23 07:44:15;;;;;;;7.22;2.60;;;3.20;99.90;;;;;;5035575;28;20040;-53
2023/12/23 07:46:41;;;;;;;3.33;1.48;;;3.20;99.90;;;;;;5017593;28;20022;-53
2023/12/23 07:49:07;;;;;;;7.60;1.80;;;3.20;99.90;;;;;;5035339;28;20032;-54
2023/12/23 07:51:33;;;;;;;4.78;1.15;;;3.20;99.90;;;;;;5030005;28;20049;-53
2023/12/23 07:53:59;;;;;;;6.82;1.48;;;3.20;99.90;;;;;;5027776;28;20040;-51
2023/12/23 07:56:25;;;;;;;3.92;1.50;;;3.20;99.90;;;;;;5027195;28;20033;-54
2023/12/23 07:58:51;;;;;;;4.00;1.70;;;3.10;99.90;;;;;;5028160;28;20021;-55
2023/12/23 08:01:17;;;;;;;8.13;2.03;;;3.20;99.90;;;;;;5032503;28;20021;-53
2023/12/23 08:03:43;;;;;;;6.20;1.98;;;3.10;99.90;;;;;;5038650;28;20617;-52
2023/12/23 08:06:08;;;;;;;5.45;1.77;;;3.10;99.90;;;;;;5029352;28;20486;-51
2023/12/23 08:08:34;;;;;;;8.30;1.95;;;3.10;99.90;;;;;;5037342;28;20108;-54
2023/12/23 08:10:59;;;;;;;5.13;1.75;;;3.10;99.90;;;;;;5030265;28;20037;-55
2023/12/23 08:13:27;;;;;;;6.53;1.70;;;3.10;99.90;;;;;;5035932;28;20025;-54
2023/12/23 08:15:52;;;;;;;6.53;2.25;;;3.10;99.90;;;;;;5019914;28;20075;-54
2023/12/23 08:18:18;;;;;;;7.18;2.17;;;3.10;99.90;;;;;;5035957;28;20265;-54
2023/12/23 08:20:44;;;;;;;8.32;1.50;;;3.10;99.90;;;;;;5038060;28;20036;-55
2023/12/23 08:23:10;;;;;;;5.97;1.58;;;3.10;99.90;;;;;;5036344;28;20534;-57
2023/12/23 08:25:35;;;;;;;7.35;1.60;;;3.10;99.90;;;;;;5035900;28;20071;-56
2023/12/23 08:28:01;;;;;;;6.55;1.70;;;3.10;99.90;;;;;;5037848;28;20025;-55
2023/12/23 08:30:26;;;;;;;2.45;1.35;;;3.10;99.90;;;;;;5036301;28;20029;-54
2023/12/23 08:32:52;;;;;;;6.93;1.35;;;3.10;99.90;;;;;;5023024;28;20110;-57
2023/12/23 08:35:18;;;;;;;2.53;1.50;;;3.10;99.90;;;;;;5039321;28;20083;-55
2023/12/23 08:37:43;;;;;;;8.60;1.73;;;3.20;99.90;;;;;;5042358;28;20029;-55
2023/12/23 08:40:10;;;;;;;13.40;2.65;;;3.20;99.90;;;;;;5022956;28;20116;-55
2023/12/23 08:42:36;;;;;;;5.30;1.90;;;3.20;99.90;;;;;;5041563;28;20357;-55
2023/12/23 08:45:02;;;;;;;12.13;2.22;;;3.20;99.90;;;;;;5042201;28;20456;-54
2023/12/23 08:47:27;;;;;;;15.13;2.78;;;3.20;99.90;;;;;;5039678;28;20029;-55
2023/12/23 08:49:53;;;;;;;6.22;1.90;;;3.30;99.90;;;;;;5024884;28;20095;-55
2023/12/23 08:52:18;;;;;;;4.80;1.77;;;3.30;99.90;;;;;;5039433;28;20105;-55
2023/12/23 08:54:44;;;;;;;6.13;1.85;;;3.30;99.90;;;;;;5042368;28;20021;-55
2023/12/23 08:57:10;;;;;;;5.32;1.73;;;3.30;99.90;;;;;;5039995;28;20021;-55
2023/12/23 08:59:35;;;;;;;2.10;1.38;;;3.30;99.90;;;;;;5041288;28;20383;-54
2023/12/23 09:02:03;;;;;;;1.45;1.08;;;3.40;99.90;;;;;;5041823;28;20108;-55
2023/12/23 09:04:29;;;;;;;4.15;1.50;;;3.40;99.90;;;;;;5039498;28;20021;-54
2023/12/23 09:06:56;;;;;;;5.85;1.70;;;3.40;99.90;;;;;;5039157;28;20364;-55
2023/12/23 09:09:22;;;;;;;3.70;1.60;;;3.40;99.90;;;;;;5031368;28;20415;-55
2023/12/23 09:11:48;;;;;;;3.47;1.50;;;3.40;99.90;;;;;;5043182;28;20027;-55
2023/12/23 09:14:15;;;;;;;2.17;1.13;;;3.40;99.90;;;;;;5040447;28;20017;-55
2023/12/23 09:16:40;;;;;;;5.43;2.15;;;3.50;99.90;;;;;;5036689;28;20030;-56
2023/12/23 09:19:06;;;;;;;4.00;1.60;;;3.50;99.90;;;;;;5041475;28;20043;-56
2023/12/23 09:21:32;;;;;;;2.55;1.42;;;3.50;99.90;;;;;;5040625;28;20025;-55
2023/12/23 09:23:58;;;;;;;3.03;1.52;;;3.50;99.90;;;;;;5042470;28;20078;-55
2023/12/23 09:26:24;;;;;;;2.75;1.30;;;3.50;99.90;;;;;;5030842;28;20130;-57
2023/12/23 09:28:51;;;;;;;3.97;1.60;;;3.60;99.90;;;;;;5029608;28;20022;-55
2023/12/23 09:31:16;;;;;;;2.50;1.88;;;3.60;99.90;;;;;;5030429;28;20022;-55
2023/12/23 09:33:42;;;;;;;2.10;1.55;;;3.60;99.90;;;;;;5042743;28;20040;-55
2023/12/23 09:36:08;;;;;;;3.05;1.58;;;3.60;99.90;;;;;;5036321;28;20306;-55
2023/12/23 09:38:34;;;;;;;3.10;1.60;;;3.60;99.90;;;;;;5036471;28;20365;-55
2023/12/23 09:40:59;;;;;;;2.75;1.73;;;3.60;99.90;;;;;;5024850;28;20029;-55
2023/12/23 09:43:25;;;;;;;2.60;1.60;;;3.70;99.90;;;;;;5012834;28;20096;-55
2023/12/23 09:45:52;;;;;;;2.20;1.35;;;3.70;99.90;;;;;;5028932;28;20025;-54
2023/12/23 09:48:18;;;;;;;3.22;1.55;;;3.60;99.90;;;;;;5028907;28;20014;-55
2023/12/23 09:50:45;;;;;;;5.40;1.60;;;3.60;99.90;;;;;;5029216;28;20022;-55
2023/12/23 09:53:13;;;;;;;4.03;1.63;;;3.60;99.90;;;;;;5028807;28;20029;-53
2023/12/23 09:55:40;;;;;;;3.30;2.20;;;3.60;99.90;;;;;;5027826;28;20373;-57
2023/12/23 09:58:06;;;;;;;5.72;1.90;;;3.60;99.90;;;;;;5028837;28;20018;-54
2023/12/23 10:00:32;;;;;;;2.40;1.70;;;3.60;99.90;;;;;;5027866;28;20026;-54
2023/12/23 10:02:59;;;;;;;2.85;1.67;;;3.60;99.90;;;;;;5028453;28;20104;-55
2023/12/23 10:05:29;;;;;;;4.70;1.60;;;3.60;99.90;;;;;;5034614;28;20347;-56
2023/12/23 10:07:58;;;;;;;2.75;1.63;;;3.60;99.90;;;;;;5042860;28;20021;-55
2023/12/23 10:10:32;;;;;;;3.45;1.80;;;3.60;99.90;;;;;;5034893;28;20033;-55
2023/12/23 10:12:57;;;;;;;2.22;1.50;;;3.60;99.90;;;;;;5043280;28;20039;-55
2023/12/23 10:15:23;;;;;;;4.40;1.70;;;3.60;99.90;;;;;;5034158;28;20546;-54
2023/12/23 10:17:49;;;;;;;3.28;1.85;;;3.60;99.90;;;;;;5042565;28;20021;-55
2023/12/23 10:20:14;;;;;;;2.70;1.52;;;3.60;99.90;;;;;;5041084;28;20478;-56
2023/12/23 10:22:44;;;;;;;3.00;1.40;;;3.60;99.90;;;;;;5042258;28;20030;-55
2023/12/23 10:25:11;;;;;;;2.30;1.75;;;3.60;99.90;;;;;;5036472;28;20040;-54
2023/12/23 10:27:41;;;;;;;3.85;1.55;;;3.60;99.90;;;;;;5021579;28;20044;-54
2023/12/23 10:30:09;;;;;;;4.05;2.20;;;3.70;99.90;;;;;;5039477;28;20032;-55
2023/12/23 10:32:36;;;;;;;2.67;1.60;;;3.70;99.90;;;;;;5021664;28;20128;-55
2023/12/23 10:35:04;;;;;;;3.33;1.80;;;3.60;99.90;;;;;;5034106;28;20092;-54
2023/12/23 10:37:30;;;;;;;2.45;1.48;;;3.60;99.90;;;;;;5040684;28;20029;-54
2023/12/23 10:40:03;;;;;;;11.30;2.65;;;3.60;99.90;;;;;;5043110;28;20028;-54
2023/12/23 10:42:30;;;;;;;5.40;1.67;;;3.60;99.90;;;;;;5040504;28;20021;-55
2023/12/23 10:44:57;;;;;;;3.88;1.55;;;3.60;99.90;;;;;;5043328;28;20025;-54
2023/12/23 10:47:24;;;;;;;6.40;1.67;;;3.60;99.90;;;;;;5039777;28;20507;-55
2023/12/23 10:49:50;;;;;;;3.10;2.08;;;3.60;99.90;;;;;;5043238;28;20067;-54
2023/12/23 10:52:17;;;;;;;5.05;1.90;;;3.70;99.90;;;;;;5023562;28;20009;-55
2023/12/23 10:54:43;;;;;;;2.83;1.55;;;3.60;99.90;;;;;;5021392;28;20025;-54
2023/12/23 10:57:10;;;;;;;3.97;1.73;;;3.70;99.90;;;;;;5038430;28;20028;-55
2023/12/23 10:59:35;;;;;;;2.78;1.20;;;3.60;99.90;;;;;;5024151;28;20025;-55
2023/12/23 11:02:13;;;;;;;1.80;1.13;;;3.70;99.90;;;;;;5039408;28;20029;-55
2023/12/23 11:04:42;;;;;;;3.38;1.52;;;3.70;99.90;;;;;;5040758;28;20021;-55
2023/12/23 11:07:11;;;;;;;3.97;1.42;;;3.70;99.90;;;;;;5023948;28;20060;-55
2023/12/23 11:09:38;;;;;;;5.07;1.92;;;3.70;99.90;;;;;;5041355;28;20475;-55
2023/12/23 11:12:05;;;;;;;4.28;1.90;;;3.70;99.90;;;;;;5042881;28;20021;-55
2023/12/23 11:14:31;;;;;;;2.72;1.60;;;3.70;99.90;;;;;;5040612;28;20020;-55
2023/12/23 11:16:59;;;;;;;5.72;1.50;;;3.70;99.90;;;;;;5042374;28;20032;-54
2023/12/23 11:19:25;;;;;;;1.85;1.33;;;3.70;99.90;;;;;;5040744;28;20033;-57
2023/12/23 11:22:23;;;;;;;2.45;1.50;;;3.70;99.90;;;;;;5042867;28;20017;-54
2023/12/23 11:24:49;;;;;;;8.75;1.80;;;3.70;99.90;;;;;;5019972;28;20033;-55
2023/12/23 11:27:37;;;;;;;3.45;1.58;;;3.80;99.90;;;;;;5041194;28;20032;-54
2023/12/23 11:30:07;;;;;;;2.47;1.40;;;3.80;99.90;;;;;;5035215;28;20091;-54
2023/12/23 11:32:41;;;;;;;2.90;1.52;;;3.80;99.90;;;;;;5040942;28;20113;-55
2023/12/23 11:35:09;;;;;;;2.85;1.77;;;3.80;99.90;;;;;;5043065;28;20025;-54
2023/12/23 11:37:52;;;;;;;4.05;2.13;;;3.80;99.90;;;;;;5040980;28;20014;-55
2023/12/23 11:40:19;;;;;;;4.93;1.90;;;3.80;99.90;;;;;;5041640;28;20043;-55
2023/12/23 11:42:46;;;;;;;5.70;1.73;;;3.80;99.90;;;;;;5042635;28;20021;-54
2023/12/23 11:45:12;;;;;;;2.75;1.80;;;3.80;99.90;;;;;;5024403;28;20021;-54
2023/12/23 11:47:39;;;;;;;4.18;1.67;;;3.80;99.90;;;;;;5041333;28;20388;-54
2023/12/23 11:50:08;;;;;;;3.08;2.47;;;3.80;99.90;;;;;;5042940;28;20016;-54
2023/12/23 11:52:34;;;;;;;2.67;1.80;;;3.90;99.90;;;;;;5015632;28;20029;-54
2023/12/23 11:55:01;;;;;;;3.47;1.90;;;3.90;99.90;;;;;;5038710;28;20024;-55
2023/12/23 11:57:28;;;;;;;6.35;2.75;;;3.90;99.90;;;;;;5034748;28;20113;-54
2023/12/23 11:59:58;;;;;;;4.75;3.00;;;3.90;99.90;;;;;;5043678;28;20060;-55
2023/12/23 12:02:24;;;;;;;4.90;2.60;;;3.90;99.90;;;;;;5041627;28;20306;-53
2023/12/23 12:04:51;;;;;;;4.50;1.90;;;3.90;99.90;;;;;;5043783;28;20061;-54
2023/12/23 12:07:20;;;;;;;3.45;2.10;;;3.90;99.90;;;;;;5043946;28;20056;-55
2023/12/23 12:09:46;;;;;;;5.85;2.35;;;4.00;99.90;;;;;;5047040;28;20432;-55
2023/12/23 12:12:12;;;;;;;4.00;2.58;;;4.00;99.90;;;;;;5046621;28;20031;-55
2023/12/23 12:14:38;;;;;;;4.28;2.95;;;4.00;99.90;;;;;;5045460;28;20018;-55
2023/12/23 12:17:05;;;;;;;3.17;2.30;;;4.10;99.90;;;;;;5046291;28;20036;-55
2023/12/23 12:19:31;;;;;;;3.92;2.60;;;4.00;99.90;;;;;;5029038;28;20037;-55
2023/12/23 12:21:57;;;;;;;3.35;2.75;;;4.10;99.90;;;;;;5046977;28;20103;-54
2023/12/23 12:24:22;;;;;;;3.53;2.25;;;4.10;99.90;;;;;;5042371;28;20025;-55
2023/12/23 12:26:52;;;;;;;3.20;2.65;;;4.10;99.90;;;;;;5038170;28;20025;-55
2023/12/23 12:29:22;;;;;;;7.75;3.55;;;4.10;99.90;;;;;;5043685;28;20044;-55
2023/12/23 12:31:49;;;;;;;4.85;2.78;;;4.10;99.90;;;;;;5046916;28;20040;-55
2023/12/23 12:34:15;;;;;;;4.28;3.10;;;4.10;99.90;;;;;;5038297;28;20103;-54
2023/12/23 12:36:41;;;;;;;5.05;2.58;;;4.10;99.90;;;;;;5025104;28;20499;-55
2023/12/23 12:39:07;;;;;;;5.10;3.55;;;4.10;99.90;;;;;;5041206;28;20024;-55
2023/12/23 12:41:37;;;;;;;4.15;3.03;;;4.10;99.90;;;;;;5045570;28;20030;-54
2023/12/23 12:44:04;;;;;;;7.50;3.72;;;4.20;99.90;;;;;;5040824;28;20021;-56
2023/12/23 12:46:32;;;;;;;6.10;4.28;;;4.20;99.90;;;;;;5037127;28;20101;-55
2023/12/23 12:49:00;;;;;;;5.95;4.45;;;4.20;99.90;;;;;;5036101;28;20037;-54